Time;durP1;ratioP1;P1;durP2;ratioP2;P2;SDS_P1;SDS_P2;PMS_P1;PMS_P2;Temp;Humidity;BMP_temperature;BMP_pressure;BME280_temperature;BME280_humidity;BME280_pressure;Samples;Min_cycle;Max_cycle;Signal;HPM_P1;HPM_P2
2022/06/10 00:02:25;;;;;;;2.25;1.50;;;;;;;;;;6338068;22;20548;-89
2022/06/10 00:05:15;;;;;;;;;;;;;;;;;;;;;
2022/06/10 00:08:02;;;;;;;1.55;1.27;;;;;;;;;;6338009;22;20151;-89
2022/06/10 00:10:35;;;;;;;2.13;1.23;;;;;;;;;;6325912;22;20170;-89
2022/06/10 00:13:06;;;;;;;1.80;1.30;;;;;;;;;;6337919;22;20188;-89
2022/06/10 00:15:38;;;;;;;1.58;1.25;;;;;;;;;;6337740;22;20190;-89
2022/06/10 00:18:20;;;;;;;1.15;1.05;;;;;;;;;;6337633;22;20187;-88
2022/06/10 00:21:05;;;;;;;2.85;1.25;;;;;;;;;;6338316;22;20166;-89
2022/06/10 00:23:35;;;;;;;2.03;1.30;;;;;;;;;;6337986;22;20169;-88
2022/06/10 00:26:14;;;;;;;1.80;1.30;;;;;;;;;;6337913;22;20182;-88
2022/06/10 00:31:39;;;;;;;2.13;1.40;;;;;;;;;;6334426;22;20171;-89
2022/06/10 00:34:15;;;;;;;1.30;1.20;;;;;;;;;;6337966;22;20625;-88
2022/06/10 00:36:51;;;;;;;1.30;1.10;;;;;;;;;;6337436;22;20247;-89
2022/06/10 00:54:07;;;;;;;1.10;1.00;;;;;;;;;;6238263;23;20168;-88
2022/06/10 00:59:52;;;;;;;1.90;1.15;;;;;;;;;;6234433;22;20200;-88
2022/06/10 01:02:59;;;;;;;1.30;1.20;;;;;;;;;;6243650;23;20747;-88
2022/06/10 01:09:13;;;;;;;1.40;1.30;;;;;;;;;;6054275;23;20708;-88
2022/06/10 01:36:07;;;;;;;1.52;1.30;;;;;;;;;;6092280;23;20171;-87
2022/06/10 01:39:00;;;;;;;1.90;1.20;;;;;;;;;;6035132;23;20285;-87
2022/06/10 01:47:40;;;;;;;1.30;1.20;;;;;;;;;;6195479;23;20176;-87
2022/06/10 01:56:34;;;;;;;1.95;1.42;;;;;;;;;;6210659;23;20177;-87
2022/06/10 02:02:32;;;;;;;1.67;1.35;;;;;;;;;;6204256;23;20259;-87
2022/06/10 02:05:16;;;;;;;2.13;1.52;;;;;;;;;;6121456;23;20191;-87
2022/06/10 02:08:10;;;;;;;1.58;1.13;;;;;;;;;;6121700;23;20171;-87
2022/06/10 02:10:59;;;;;;;1.40;1.25;;;;;;;;;;6137444;23;20364;-87
2022/06/10 02:13:46;;;;;;;1.75;1.30;;;;;;;;;;6179530;23;20177;-87
2022/06/10 02:16:28;;;;;;;1.25;1.10;;;;;;;;;;6179360;23;20244;-87
2022/06/10 02:22:05;;;;;;;;;;;;;;;;;;;;;
2022/06/10 02:24:57;;;;;;;2.13;1.40;;;;;;;;;;6181271;23;20166;-87
2022/06/10 02:27:48;;;;;;;1.73;1.30;;;;;;;;;;6180345;23;20178;-87
2022/06/10 02:30:26;;;;;;;1.50;1.30;;;;;;;;;;6180320;23;20205;-87
2022/06/10 02:33:06;;;;;;;1.58;1.27;;;;;;;;;;6181232;23;20181;-87
2022/06/10 02:38:53;;;;;;;1.70;1.35;;;;;;;;;;6272364;22;20204;-87
2022/06/10 02:41:39;;;;;;;1.38;1.27;;;;;;;;;;6274523;22;20165;-87
2022/06/10 02:44:19;;;;;;;1.75;1.27;;;;;;;;;;6274917;22;20198;-87
2022/06/10 02:47:00;;;;;;;1.38;1.20;;;;;;;;;;6274580;22;20168;-87
2022/06/10 02:49:36;;;;;;;1.10;1.10;;;;;;;;;;6274634;22;20272;-87
2022/06/10 02:52:09;;;;;;;1.98;1.20;;;;;;;;;;6274662;22;20168;-87
2022/06/10 02:54:44;;;;;;;1.48;1.20;;;;;;;;;;6274824;22;20178;-87
2022/06/10 03:03:24;;;;;;;1.30;1.20;;;;;;;;;;6275362;22;20190;-87
2022/06/10 03:06:06;;;;;;;1.50;1.40;;;;;;;;;;6276443;22;20172;-87
2022/06/10 03:08:49;;;;;;;1.58;1.48;;;;;;;;;;6276876;22;20199;-87
2022/06/10 03:14:17;;;;;;;1.27;1.17;;;;;;;;;;6273327;22;20167;-87
2022/06/10 03:17:19;;;;;;;1.67;1.20;;;;;;;;;;6276470;22;20172;-87
2022/06/10 03:20:08;;;;;;;1.40;1.30;;;;;;;;;;6277020;22;20249;-87
2022/06/10 03:22:48;;;;;;;2.30;1.33;;;;;;;;;;6276917;22;20170;-87
2022/06/10 03:25:31;;;;;;;1.30;1.20;;;;;;;;;;6276719;22;20170;-87
2022/06/10 03:28:23;;;;;;;;;;;;;;;;;;;;;
2022/06/10 03:30:59;;;;;;;1.40;1.30;;;;;;;;;;6276897;22;20144;-88
2022/06/10 03:36:47;;;;;;;1.52;1.30;;;;;;;;;;6274125;22;20178;-87
2022/06/10 03:39:25;;;;;;;1.27;1.13;;;;;;;;;;6276719;22;20188;-87
2022/06/10 03:42:09;;;;;;;1.63;1.30;;;;;;;;;;6276702;22;20172;-87
2022/06/10 03:44:46;;;;;;;1.42;1.25;;;;;;;;;;6276568;22;20559;-86
2022/06/10 03:47:27;;;;;;;1.40;1.30;;;;;;;;;;6276185;22;20168;-86
2022/06/10 03:50:07;;;;;;;1.52;1.33;;;;;;;;;;6276167;22;20192;-87
2022/06/10 03:58:47;;;;;;;1.35;1.13;;;;;;;;;;6267398;22;20210;-87
2022/06/10 04:01:21;;;;;;;1.30;1.20;;;;;;;;;;6122962;23;20191;-87
2022/06/10 04:03:59;;;;;;;1.13;1.02;;;;;;;;;;6222355;22;20172;-88
2022/06/10 04:09:32;;;;;;;1.75;1.20;;;;;;;;;;6274970;22;20202;-87
2022/06/10 04:12:17;;;;;;;1.60;1.20;;;;;;;;;;6276574;22;20171;-87
2022/06/10 04:17:55;;;;;;;1.23;1.13;;;;;;;;;;6275125;22;20195;-87
2022/06/10 04:23:14;;;;;;;1.40;1.30;;;;;;;;;;6274696;22;20263;-88
2022/06/10 04:25:44;;;;;;;1.50;1.40;;;;;;;;;;6296471;22;20223;-87
2022/06/10 04:31:15;;;;;;;2.90;1.60;;;;;;;;;;6271366;22;20168;-89
2022/06/10 04:40:13;;;;;;;26.75;5.28;;;;;;;;;;6172540;23;20225;-91
2022/06/10 05:04:03;;;;;;;5.53;3.00;;;;;;;;;;6180821;23;20153;-88
2022/06/10 05:49:09;;;;;;;4.55;2.25;;;;;;;;;;6121467;23;20219;-87
2022/06/10 05:52:08;;;;;;;7.50;2.17;;;;;;;;;;6246653;22;20172;-88
2022/06/10 06:03:52;;;;;;;5.03;2.15;;;;;;;;;;6336692;22;20174;-88
2022/06/10 06:09:42;;;;;;;5.15;2.40;;;;;;;;;;6319233;22;20191;-88
2022/06/10 07:00:57;;;;;;;3.00;1.88;;;;;;;;;;6211485;23;20189;-89
2022/06/10 07:03:50;;;;;;;;;;;;;;;;;;;;;
2022/06/10 07:06:22;;;;;;;2.63;1.70;;;;;;;;;;6212658;23;20208;-89
2022/06/10 07:09:30;;;;;;;2.22;1.50;;;;;;;;;;6212559;23;20341;-86
2022/06/10 07:12:36;;;;;;;;;;;;;;;;;;;;;
2022/06/10 07:15:15;;;;;;;2.08;1.55;;;;;;;;;;6212319;23;20169;-87
2022/06/10 07:27:05;;;;;;;3.03;1.67;;;;;;;;;;6122142;23;20179;-87
2022/06/10 07:30:03;;;;;;;2.78;1.45;;;;;;;;;;6101101;23;20195;-87
2022/06/10 07:36:10;;;;;;;2.55;1.75;;;;;;;;;;6093819;23;20176;-87
2022/06/10 07:39:10;;;;;;;2.22;1.50;;;;;;;;;;6093391;23;20198;-87
2022/06/10 07:42:11;;;;;;;4.47;1.67;;;;;;;;;;6094039;23;20176;-87
2022/06/10 07:48:10;;;;;;;2.95;1.90;;;;;;;;;;5971990;24;20175;-88
2022/06/10 07:50:56;;;;;;;2.47;1.70;;;;;;;;;;5975778;23;20271;-88
2022/06/10 07:59:44;;;;;;;;;;;;;;;;;;;;;
2022/06/10 08:18:37;;;;;;;;;;;;;;;;;;;;;
2022/06/10 08:24:09;;;;;;;2.92;1.60;;;;;;;;;;6064641;23;20191;-87
2022/06/10 08:38:10;;;;;;;2.03;1.30;;;;;;;;;;6254689;22;20188;-87
2022/06/10 08:53:36;;;;;;;1.92;1.40;;;;;;;;;;6269592;22;20259;-87
2022/06/10 09:05:26;;;;;;;;;;;;;;;;;;;;;
2022/06/10 09:17:36;;;;;;;3.00;1.60;;;;;;;;;;6092931;23;20171;-90
2022/06/10 09:20:33;;;;;;;2.70;1.23;;;;;;;;;;6034960;23;20213;-89
2022/06/10 09:23:15;;;;;;;2.40;1.38;;;;;;;;;;6035100;23;20256;-88
2022/06/10 09:26:02;;;;;;;2.03;1.50;;;;;;;;;;6014605;23;20197;-89
2022/06/10 09:28:32;;;;;;;2.58;1.60;;;;;;;;;;6035925;23;20170;-89
2022/06/10 09:31:29;;;;;;;1.55;1.30;;;;;;;;;;6035663;23;20177;-88
2022/06/10 09:34:38;;;;;;;;;;;;;;;;;;;;;
2022/06/10 09:37:30;;;;;;;1.63;1.30;;;;;;;;;;6122096;23;20171;-89
2022/06/10 09:43:23;;;;;;;1.77;1.33;;;;;;;;;;6275567;22;20160;-88
2022/06/10 10:26:56;;;;;;;207.57;187.52;;;;;;;;;;6282483;22;20262;-88
2022/06/10 10:29:35;;;;;;;174.73;157.57;;;;;;;;;;6308473;22;20197;-86
2022/06/10 10:35:28;;;;;;;146.02;131.43;;;;;;;;;;6153324;23;20181;-86
2022/06/10 10:47:41;;;;;;;106.18;95.65;;;;;;;;;;6307382;22;20167;-87
2022/06/10 10:54:02;;;;;;;;;;;;;;;;;;;;;
2022/06/10 10:56:51;;;;;;;79.00;71.18;;;;;;;;;;6095371;23;20171;-85
2022/06/10 11:24:23;;;;;;;38.35;34.65;;;;;;;;;;6080723;23;20180;-87
2022/06/10 11:27:27;;;;;;;;;;;;;;;;;;;;;
2022/06/10 11:36:15;;;;;;;26.45;23.85;;;;;;;;;;6006185;23;20177;-87
2022/06/10 11:41:38;;;;;;;23.00;20.80;;;;;;;;;;6062139;23;20181;-88
2022/06/10 11:47:24;;;;;;;21.60;19.52;;;;;;;;;;6179454;23;20209;-85
2022/06/10 11:53:02;;;;;;;18.25;16.33;;;;;;;;;;6173801;23;20177;-88
2022/06/10 11:55:38;;;;;;;17.08;15.43;;;;;;;;;;6182026;23;20162;-85
2022/06/10 12:03:57;;;;;;;14.07;12.68;;;;;;;;;;6205911;23;20168;-89
2022/06/10 12:09:28;;;;;;;12.73;11.43;;;;;;;;;;6246529;22;20188;-85
2022/06/10 12:12:02;;;;;;;13.50;12.20;;;;;;;;;;6245852;22;20168;-88
2022/06/10 12:23:47;;;;;;;10.95;9.85;;;;;;;;;;6337218;22;20184;-87
2022/06/10 12:26:21;;;;;;;9.40;8.48;;;;;;;;;;6242101;23;20172;-88
2022/06/10 12:29:04;;;;;;;9.38;8.48;;;;;;;;;;6242052;23;20164;-89
2022/06/10 12:32:03;;;;;;;;;;;;;;;;;;;;;
2022/06/10 12:34:54;;;;;;;8.77;7.90;;;;;;;;;;6237044;23;20247;-87
2022/06/10 12:37:26;;;;;;;8.60;7.65;;;;;;;;;;6242077;23;20211;-86
2022/06/10 13:18:15;;;;;;;4.05;3.70;;;;;;;;;;6314965;22;20214;-87
2022/06/10 13:26:50;;;;;;;6.32;3.75;;;;;;;;;;6257692;22;20521;-85
2022/06/10 13:29:21;;;;;;;3.97;3.38;;;;;;;;;;6244881;23;20191;-86
2022/06/10 13:31:54;;;;;;;3.28;2.95;;;;;;;;;;6247002;23;20172;-84
2022/06/10 13:34:23;;;;;;;3.08;2.53;;;;;;;;;;6246720;23;20195;-84
2022/06/10 13:36:53;;;;;;;3.97;3.10;;;;;;;;;;6245938;23;20172;-84
2022/06/10 13:39:24;;;;;;;3.75;2.33;;;;;;;;;;6244820;23;20219;-83
2022/06/10 13:41:54;;;;;;;3.75;2.85;;;;;;;;;;6247092;23;20169;-83
2022/06/10 13:44:39;;;;;;;3.42;2.53;;;;;;;;;;6247466;23;20169;-83
2022/06/10 13:47:31;;;;;;;3.38;2.63;;;;;;;;;;6227585;23;20679;-83
2022/06/10 13:50:22;;;;;;;4.57;2.65;;;;;;;;;;6248291;23;20239;-83
2022/06/10 13:52:50;;;;;;;2.95;2.50;;;;;;;;;;6247293;23;20173;-83
2022/06/10 13:55:26;;;;;;;3.00;2.33;;;;;;;;;;6247922;23;20180;-84
2022/06/10 13:58:04;;;;;;;2.33;2.13;;;;;;;;;;6246538;23;20172;-83
2022/06/10 14:00:35;;;;;;;4.10;2.10;;;;;;;;;;6246374;23;20644;-84
2022/06/10 14:03:03;;;;;;;3.10;2.10;;;;;;;;;;6248826;23;20187;-84
2022/06/10 14:05:31;;;;;;;3.47;2.33;;;;;;;;;;6251489;23;20168;-83
2022/06/10 14:08:00;;;;;;;3.10;2.00;;;;;;;;;;6246644;23;20655;-84
2022/06/10 14:10:30;;;;;;;2.30;2.03;;;;;;;;;;6246646;23;20244;-84
2022/06/10 14:13:04;;;;;;;2.15;1.83;;;;;;;;;;6248787;23;20169;-84
2022/06/10 14:15:33;;;;;;;3.97;1.88;;;;;;;;;;6249089;23;20165;-84
2022/06/10 14:18:02;;;;;;;2.55;2.08;;;;;;;;;;6251999;23;20226;-83
2022/06/10 14:20:31;;;;;;;2.65;2.13;;;;;;;;;;6252529;23;20196;-83
2022/06/10 14:23:07;;;;;;;4.13;2.03;;;;;;;;;;6254210;23;20207;-83
2022/06/10 14:25:35;;;;;;;2.67;2.00;;;;;;;;;;6251666;23;20175;-83
2022/06/10 14:28:13;;;;;;;2.72;1.92;;;;;;;;;;6260397;22;20180;-83
2022/06/10 14:30:48;;;;;;;2.20;1.98;;;;;;;;;;6250972;23;20220;-83
2022/06/10 14:33:18;;;;;;;2.53;1.90;;;;;;;;;;6246110;23;20183;-83
2022/06/10 14:35:49;;;;;;;2.72;2.40;;;;;;;;;;6245970;23;20223;-83
2022/06/10 14:38:21;;;;;;;2.35;2.15;;;;;;;;;;6244629;23;20180;-83
2022/06/10 14:40:56;;;;;;;1.77;1.50;;;;;;;;;;6245103;23;20193;-84
2022/06/10 14:43:28;;;;;;;3.45;2.10;;;;;;;;;;6245373;23;20172;-84
2022/06/10 14:46:04;;;;;;;3.30;1.90;;;;;;;;;;6246809;23;20171;-84
2022/06/10 14:48:35;;;;;;;3.95;2.20;;;;;;;;;;6244388;23;20173;-84
2022/06/10 14:51:10;;;;;;;2.30;1.95;;;;;;;;;;6245206;23;20209;-84
2022/06/10 14:53:39;;;;;;;2.13;1.92;;;;;;;;;;6246128;23;20223;-84
2022/06/10 14:56:20;;;;;;;2.55;1.90;;;;;;;;;;6245050;23;20192;-84
2022/06/10 14:58:56;;;;;;;4.15;2.10;;;;;;;;;;6246631;23;20161;-84
2022/06/10 15:01:25;;;;;;;4.03;2.20;;;;;;;;;;6246973;23;20164;-84
2022/06/10 15:03:52;;;;;;;2.35;2.00;;;;;;;;;;6246487;23;20222;-84
2022/06/10 15:06:28;;;;;;;2.95;1.65;;;;;;;;;;6246460;23;20195;-84
2022/06/10 15:09:00;;;;;;;1.98;1.75;;;;;;;;;;6245857;23;20195;-84
2022/06/10 15:11:32;;;;;;;3.63;1.90;;;;;;;;;;6245887;23;20222;-84
2022/06/10 15:14:01;;;;;;;3.63;1.90;;;;;;;;;;6246700;23;20243;-83
2022/06/10 15:16:30;;;;;;;3.15;1.77;;;;;;;;;;6248144;23;20247;-83
2022/06/10 15:18:57;;;;;;;2.42;1.80;;;;;;;;;;6249121;23;20177;-83
2022/06/10 15:21:37;;;;;;;2.78;1.70;;;;;;;;;;6246853;23;20195;-83
2022/06/10 15:24:05;;;;;;;1.95;1.73;;;;;;;;;;6247605;23;20230;-84
2022/06/10 15:26:38;;;;;;;3.00;2.00;;;;;;;;;;6246278;22;20181;-83
2022/06/10 15:29:07;;;;;;;2.58;1.73;;;;;;;;;;6246699;23;20171;-84
2022/06/10 15:31:35;;;;;;;2.03;1.70;;;;;;;;;;6246568;23;20172;-83
2022/06/10 15:34:06;;;;;;;2.33;1.65;;;;;;;;;;6247669;23;20219;-84
2022/06/10 15:42:10;;;;;;;1.95;1.75;;;;;;;;;;6246601;23;20210;-84
2022/06/10 15:44:40;;;;;;;2.67;1.80;;;;;;;;;;6246211;23;20702;-84
2022/06/10 15:47:14;;;;;;;2.10;1.90;;;;;;;;;;6246215;23;20231;-83
2022/06/10 15:49:45;;;;;;;2.58;1.67;;;;;;;;;;6245224;23;20195;-84
2022/06/10 15:52:18;;;;;;;1.92;1.67;;;;;;;;;;6243742;23;20639;-85
2022/06/10 15:57:34;;;;;;;1.65;1.48;;;;;;;;;;6245869;23;20155;-84
2022/06/10 16:00:09;;;;;;;2.95;1.88;;;;;;;;;;6246029;23;20192;-84
2022/06/10 16:02:47;;;;;;;2.17;1.63;;;;;;;;;;6245354;23;20218;-84
2022/06/10 16:05:36;;;;;;;2.13;1.73;;;;;;;;;;6244985;23;20165;-84
2022/06/10 16:08:07;;;;;;;2.65;1.70;;;;;;;;;;6236374;23;20173;-84
2022/06/10 16:10:41;;;;;;;2.90;1.77;;;;;;;;;;6245357;23;20185;-84
2022/06/10 16:13:21;;;;;;;3.05;1.55;;;;;;;;;;6245019;23;20171;-84
2022/06/10 16:15:51;;;;;;;1.55;1.45;;;;;;;;;;6245453;23;20168;-83
2022/06/10 16:18:19;;;;;;;2.30;1.85;;;;;;;;;;6245048;23;20255;-83
2022/06/10 16:20:48;;;;;;;1.60;1.50;;;;;;;;;;6245081;23;20188;-83
2022/06/10 16:23:24;;;;;;;2.03;1.60;;;;;;;;;;6244781;23;20238;-84
2022/06/10 16:26:16;;;;;;;1.50;1.40;;;;;;;;;;6243666;22;20203;-84
2022/06/10 16:28:47;;;;;;;1.73;1.50;;;;;;;;;;6274983;22;20506;-84
2022/06/10 16:31:23;;;;;;;2.60;1.67;;;;;;;;;;6275124;22;20245;-83
2022/06/10 16:33:58;;;;;;;2.17;1.50;;;;;;;;;;6275960;22;20170;-86
2022/06/10 16:36:29;;;;;;;1.50;1.40;;;;;;;;;;6274119;22;20171;-85
2022/06/10 16:38:57;;;;;;;1.90;1.50;;;;;;;;;;6275190;22;20164;-84
2022/06/10 16:41:26;;;;;;;2.10;1.40;;;;;;;;;;6275437;22;20187;-84
2022/06/10 16:44:11;;;;;;;2.28;1.50;;;;;;;;;;6276146;22;20175;-85
2022/06/10 16:47:12;;;;;;;1.83;1.67;;;;;;;;;;6274264;22;20198;-84
2022/06/10 16:49:43;;;;;;;2.15;1.40;;;;;;;;;;6275932;22;20198;-85
2022/06/10 16:52:14;;;;;;;1.73;1.60;;;;;;;;;;6276778;22;20168;-83
2022/06/10 16:54:48;;;;;;;2.90;1.60;;;;;;;;;;6276034;22;20513;-83
2022/06/10 16:57:25;;;;;;;1.92;1.50;;;;;;;;;;6275173;22;20181;-84
2022/06/10 17:02:55;;;;;;;1.83;1.50;;;;;;;;;;6243564;22;20168;-87
2022/06/10 17:05:31;;;;;;;1.60;1.50;;;;;;;;;;6277496;22;20168;-84
2022/06/10 17:07:59;;;;;;;2.25;1.73;;;;;;;;;;6276755;22;20186;-84
2022/06/10 17:10:29;;;;;;;2.95;1.70;;;;;;;;;;6278932;22;20237;-83
2022/06/10 17:13:03;;;;;;;2.40;1.48;;;;;;;;;;6280970;22;20202;-83
2022/06/10 17:15:34;;;;;;;1.60;1.50;;;;;;;;;;6282290;22;20163;-84
2022/06/10 17:18:05;;;;;;;1.92;1.50;;;;;;;;;;6280459;22;20195;-83
2022/06/10 17:20:34;;;;;;;1.77;1.40;;;;;;;;;;6280786;22;20196;-83
2022/06/10 17:23:04;;;;;;;1.48;1.30;;;;;;;;;;6279302;22;20164;-83
2022/06/10 17:25:50;;;;;;;2.65;1.80;;;;;;;;;;6279533;22;20172;-83
2022/06/10 17:28:18;;;;;;;2.00;1.42;;;;;;;;;;6283729;22;20217;-84
2022/06/10 17:30:47;;;;;;;3.17;1.52;;;;;;;;;;6282229;22;20192;-83
2022/06/10 17:33:20;;;;;;;2.42;1.60;;;;;;;;;;6281901;22;20171;-83
2022/06/10 17:36:01;;;;;;;1.60;1.38;;;;;;;;;;6278087;22;20243;-84
2022/06/10 17:38:42;;;;;;;2.58;1.50;;;;;;;;;;6279599;22;20189;-83
2022/06/10 17:41:16;;;;;;;2.33;1.60;;;;;;;;;;6279694;22;20191;-83
2022/06/10 17:43:45;;;;;;;2.17;1.40;;;;;;;;;;6284341;22;20171;-83
2022/06/10 17:46:27;;;;;;;3.90;1.63;;;;;;;;;;6283435;22;20533;-84
2022/06/10 17:48:58;;;;;;;2.17;1.40;;;;;;;;;;6275712;22;20180;-84
2022/06/10 17:51:28;;;;;;;3.15;1.67;;;;;;;;;;6276454;22;20174;-84
2022/06/10 17:53:57;;;;;;;2.47;1.60;;;;;;;;;;6273400;22;20171;-86
2022/06/10 17:56:26;;;;;;;2.17;1.50;;;;;;;;;;6274135;22;20174;-86
2022/06/10 17:58:54;;;;;;;3.13;1.60;;;;;;;;;;6273840;22;20175;-86
2022/06/10 18:01:25;;;;;;;1.73;1.20;;;;;;;;;;6273811;22;20241;-86
2022/06/10 18:03:52;;;;;;;1.98;1.52;;;;;;;;;;6274884;22;20164;-86
2022/06/10 18:06:27;;;;;;;2.28;1.30;;;;;;;;;;6275039;22;20213;-87
2022/06/10 18:09:02;;;;;;;3.22;1.70;;;;;;;;;;6274510;22;20167;-86
2022/06/10 18:11:47;;;;;;;3.13;1.60;;;;;;;;;;6274505;22;20233;-86
2022/06/10 18:17:00;;;;;;;1.77;1.35;;;;;;;;;;6274275;22;20171;-86
2022/06/10 18:19:29;;;;;;;2.00;1.48;;;;;;;;;;6274691;22;20204;-86
2022/06/10 18:21:56;;;;;;;1.35;1.20;;;;;;;;;;6275327;22;20261;-86
2022/06/10 18:24:28;;;;;;;1.67;1.35;;;;;;;;;;6275076;22;20269;-85
2022/06/10 18:26:59;;;;;;;2.65;1.63;;;;;;;;;;6274463;22;20175;-85
2022/06/10 18:29:31;;;;;;;2.58;1.33;;;;;;;;;;6274726;22;20196;-86
2022/06/10 18:32:07;;;;;;;1.50;1.30;;;;;;;;;;6274246;22;20176;-86
2022/06/10 18:34:37;;;;;;;2.58;1.33;;;;;;;;;;6276755;22;20198;-87
2022/06/10 18:37:04;;;;;;;2.80;1.40;;;;;;;;;;6276578;22;20172;-86
2022/06/10 18:39:47;;;;;;;1.33;1.08;;;;;;;;;;6279365;22;20199;-87
2022/06/10 18:42:17;;;;;;;1.30;1.20;;;;;;;;;;6245497;23;20184;-87
2022/06/10 18:44:45;;;;;;;2.08;1.60;;;;;;;;;;6245824;23;20173;-90
2022/06/10 18:47:18;;;;;;;1.60;1.50;;;;;;;;;;6245661;23;20222;-90
2022/06/10 18:49:52;;;;;;;1.40;1.20;;;;;;;;;;6245933;22;20219;-89
2022/06/10 18:52:22;;;;;;;2.10;1.65;;;;;;;;;;6245679;23;20168;-90
2022/06/10 18:54:54;;;;;;;2.42;1.50;;;;;;;;;;6247227;23;20172;-90
2022/06/10 18:57:29;;;;;;;1.75;1.50;;;;;;;;;;6245145;23;20172;-89
2022/06/10 19:07:08;;;;;;;;;;;;;;;;;;;;;
2022/06/10 19:15:44;;;;;;;1.67;1.50;;;;;;;;;;6242199;23;20170;-91
2022/06/10 19:18:37;;;;;;;;;;;;;;;;;;;;;
2022/06/10 19:27:50;;;;;;;1.60;1.50;;;;;;;;;;6178162;22;20176;-91
2022/06/10 19:30:19;;;;;;;1.73;1.42;;;;;;;;;;6274750;22;20196;-89
2022/06/10 19:32:54;;;;;;;1.50;1.40;;;;;;;;;;6274211;22;20175;-89
2022/06/10 19:35:26;;;;;;;2.10;1.60;;;;;;;;;;6275237;22;20365;-89
2022/06/10 19:37:58;;;;;;;1.50;1.40;;;;;;;;;;6275701;22;20172;-90
2022/06/10 19:40:28;;;;;;;2.08;1.80;;;;;;;;;;6275487;22;20200;-89
2022/06/10 19:42:59;;;;;;;3.47;2.00;;;;;;;;;;6275690;22;20172;-89
2022/06/10 19:45:36;;;;;;;2.13;1.92;;;;;;;;;;6275548;22;20195;-88
2022/06/10 19:48:09;;;;;;;2.90;1.75;;;;;;;;;;6274262;22;20175;-89
2022/06/10 19:50:42;;;;;;;2.17;1.90;;;;;;;;;;6275014;22;20191;-89
2022/06/10 19:53:15;;;;;;;2.00;1.77;;;;;;;;;;6275425;22;20203;-89
2022/06/10 19:58:40;;;;;;;2.35;1.70;;;;;;;;;;6273709;22;20175;-89
2022/06/10 20:01:29;;;;;;;;;;;;;;;;;;;;;
2022/06/10 20:04:01;;;;;;;2.83;1.98;;;;;;;;;;6267992;22;20252;-90
2022/06/10 20:06:39;;;;;;;2.75;2.13;;;;;;;;;;6275149;22;20167;-89
2022/06/10 20:09:09;;;;;;;3.20;1.95;;;;;;;;;;6275470;22;20246;-90
2022/06/10 20:11:46;;;;;;;3.40;2.10;;;;;;;;;;6275163;22;20540;-90
2022/06/10 20:14:14;;;;;;;2.28;1.90;;;;;;;;;;6275198;22;20211;-90
2022/06/10 20:16:43;;;;;;;3.70;2.55;;;;;;;;;;6275590;22;20624;-89
2022/06/10 20:19:13;;;;;;;2.15;1.95;;;;;;;;;;6274512;22;20168;-87
2022/06/10 20:21:41;;;;;;;3.42;2.10;;;;;;;;;;6275770;22;20234;-88
2022/06/10 20:24:12;;;;;;;2.65;1.88;;;;;;;;;;6274738;22;20549;-87
2022/06/10 20:26:47;;;;;;;2.60;2.10;;;;;;;;;;6275788;22;20171;-88
2022/06/10 20:45:10;;;;;;;5.47;3.03;;;;;;;;;;6078832;23;20183;-88
2022/06/10 20:48:15;;;;;;;4.72;2.35;;;;;;;;;;6092275;23;20186;-89
2022/06/10 21:15:37;;;;;;;3.20;1.95;;;;;;;;;;6061638;23;20704;-89
2022/06/10 21:18:56;;;;;;;;;;;;;;;;;;;;;
2022/06/10 21:21:49;;;;;;;;;;;;;;;;;;;;;
2022/06/10 21:24:32;;;;;;;4.28;1.95;;;;;;;;;;6151494;23;20163;-90
2022/06/10 21:27:10;;;;;;;2.33;1.55;;;;;;;;;;6151070;23;20175;-88
2022/06/10 21:29:39;;;;;;;2.70;2.13;;;;;;;;;;6151571;23;20190;-89
2022/06/10 22:30:24;;;;;;;2.08;1.88;;;;;;;;;;6293925;22;20198;-89
2022/06/10 23:06:34;;;;;;;2.42;1.70;;;;;;;;;;6270409;22;20199;-85
2022/06/10 23:12:35;;;;;;;;;;;;;;;;;;;;;
2022/06/10 23:15:23;;;;;;;1.80;1.70;;;;;;;;;;6243547;23;20187;-87
2022/06/10 23:18:03;;;;;;;2.05;1.85;;;;;;;;;;6243588;23;20168;-86
2022/06/10 23:21:02;;;;;;;2.38;1.90;;;;;;;;;;6244692;22;20202;-87
2022/06/10 23:23:32;;;;;;;3.60;2.00;;;;;;;;;;6152052;23;20177;-87
2022/06/10 23:29:07;;;;;;;2.10;1.90;;;;;;;;;;6241247;23;20174;-86
2022/06/10 23:38:04;;;;;;;1.67;1.58;;;;;;;;;;6179189;23;20212;-86
2022/06/10 23:40:39;;;;;;;2.03;1.90;;;;;;;;;;6191143;22;20267;-86
2022/06/10 23:51:31;;;;;;;2.30;1.90;;;;;;;;;;6256087;22;20211;-90
2022/06/10 23:54:01;;;;;;;1.90;1.60;;;;;;;;;;6256876;23;20179;-90
